sensor_id;sensor_type;location;lat;lon;timestamp;pressure;altitude;pressure_sealevel;temperature;humidity
18697;BME280;22617;43.690;27.956;2023-04-23T00:03:48;98948.47;;;7.23;77.17
18697;BME280;22617;43.690;27.956;2023-04-23T00:08:52;98955.22;;;7.04;77.12
18697;BME280;22617;43.690;27.956;2023-04-23T00:13:56;98956.94;;;7.04;77.46
18697;BME280;22617;43.690;27.956;2023-04-23T00:19:02;98954.94;;;6.78;76.82
18697;BME280;22617;43.690;27.956;2023-04-23T00:24:06;98949.78;;;6.78;77.18
18697;BME280;22617;43.690;27.956;2023-04-23T00:29:09;98947.13;;;6.74;77.48
18697;BME280;22617;43.690;27.956;2023-04-23T00:34:14;98952.28;;;6.71;77.68
18697;BME280;22617;43.690;27.956;2023-04-23T00:39:18;98944.75;;;6.93;78.20
18697;BME280;22617;43.690;27.956;2023-04-23T00:44:22;98953.44;;;7.01;77.69
18697;BME280;22617;43.690;27.956;2023-04-23T00:49:27;98948.19;;;6.92;77.50
18697;BME280;22617;43.690;27.956;2023-04-23T00:54:32;98951.75;;;7.07;77.75
18697;BME280;22617;43.690;27.956;2023-04-23T00:59:35;98958.75;;;7.14;77.40
18697;BME280;22617;43.690;27.956;2023-04-23T01:04:42;98962.28;;;7.22;78.02
18697;BME280;22617;43.690;27.956;2023-04-23T01:09:47;98954.44;;;7.16;77.95
18697;BME280;22617;43.690;27.956;2023-04-23T01:14:51;98962.22;;;7.14;78.33
18697;BME280;22617;43.690;27.956;2023-04-23T01:19:57;98943.28;;;7.23;77.59
18697;BME280;22617;43.690;27.956;2023-04-23T01:25:02;98949.25;;;7.16;77.11
18697;BME280;22617;43.690;27.956;2023-04-23T01:30:07;98943.97;;;7.05;77.31
18697;BME280;22617;43.690;27.956;2023-04-23T01:35:11;98942.94;;;6.86;77.55
18697;BME280;22617;43.690;27.956;2023-04-23T01:40:17;98947.94;;;6.68;78.13
18697;BME280;22617;43.690;27.956;2023-04-23T01:45:21;98952.41;;;6.83;78.34
18697;BME280;22617;43.690;27.956;2023-04-23T01:50:24;98951.28;;;6.58;78.15
18697;BME280;22617;43.690;27.956;2023-04-23T01:55:31;98959.13;;;6.64;78.77
18697;BME280;22617;43.690;27.956;2023-04-23T02:00:37;98957.41;;;6.65;78.73
18697;BME280;22617;43.690;27.956;2023-04-23T02:05:41;98956.44;;;6.55;78.71
18697;BME280;22617;43.690;27.956;2023-04-23T02:10:46;98969.34;;;6.52;78.09
18697;BME280;22617;43.690;27.956;2023-04-23T02:15:50;98973.66;;;6.51;78.37
18697;BME280;22617;43.690;27.956;2023-04-23T02:20:54;98969.41;;;6.56;78.31
18697;BME280;22617;43.690;27.956;2023-04-23T02:26:02;98971.06;;;6.51;79.02
18697;BME280;22617;43.690;27.956;2023-04-23T02:31:05;98977.25;;;6.64;79.63
18697;BME280;22617;43.690;27.956;2023-04-23T02:36:12;98963.44;;;6.65;79.82
18697;BME280;22617;43.690;27.956;2023-04-23T02:41:17;98975.38;;;6.51;79.39
18697;BME280;22617;43.690;27.956;2023-04-23T02:46:20;98965.03;;;6.54;80.13
18697;BME280;22617;43.690;27.956;2023-04-23T02:51:24;98969.41;;;6.58;79.75
18697;BME280;22617;43.690;27.956;2023-04-23T02:56:30;98967.66;;;6.57;79.18
18697;BME280;22617;43.690;27.956;2023-04-23T03:01:34;98961.44;;;6.43;79.08
18697;BME280;22617;43.690;27.956;2023-04-23T03:06:38;98964.88;;;6.37;78.78
18697;BME280;22617;43.690;27.956;2023-04-23T03:11:44;98968.38;;;6.44;78.71
18697;BME280;22617;43.690;27.956;2023-04-23T03:16:48;98969.19;;;6.40;78.88
18697;BME280;22617;43.690;27.956;2023-04-23T03:21:52;98975.25;;;6.40;79.47
18697;BME280;22617;43.690;27.956;2023-04-23T03:26:57;98978.72;;;6.42;79.88
18697;BME280;22617;43.690;27.956;2023-04-23T03:32:01;98977.81;;;6.37;80.07
18697;BME280;22617;43.690;27.956;2023-04-23T03:37:05;98979.56;;;6.41;79.53
18697;BME280;22617;43.690;27.956;2023-04-23T03:42:14;98979.50;;;6.38;78.58
18697;BME280;22617;43.690;27.956;2023-04-23T03:47:18;98993.13;;;6.24;79.14
18697;BME280;22617;43.690;27.956;2023-04-23T03:52:22;98988.25;;;6.45;80.18
18697;BME280;22617;43.690;27.956;2023-04-23T03:57:28;98996.19;;;6.60;79.63
18697;BME280;22617;43.690;27.956;2023-04-23T04:02:49;98992.00;;;6.73;80.16
18697;BME280;22617;43.690;27.956;2023-04-23T04:07:53;99009.47;;;6.92;79.70
18697;BME280;22617;43.690;27.956;2023-04-23T04:13:01;99007.88;;;7.03;79.93
18697;BME280;22617;43.690;27.956;2023-04-23T04:18:05;99009.72;;;7.13;80.31
18697;BME280;22617;43.690;27.956;2023-04-23T04:23:08;99010.75;;;7.32;80.38
18697;BME280;22617;43.690;27.956;2023-04-23T04:28:13;99006.59;;;7.51;80.32
18697;BME280;22617;43.690;27.956;2023-04-23T04:33:17;99011.09;;;7.74;79.68
18697;BME280;22617;43.690;27.956;2023-04-23T04:38:21;99010.41;;;8.01;79.93
18697;BME280;22617;43.690;27.956;2023-04-23T04:43:26;99019.19;;;8.23;79.50
18697;BME280;22617;43.690;27.956;2023-04-23T04:48:30;99023.69;;;8.54;80.43
18697;BME280;22617;43.690;27.956;2023-04-23T04:53:33;99025.53;;;8.78;81.64
18697;BME280;22617;43.690;27.956;2023-04-23T04:58:39;99026.50;;;9.09;81.53
18697;BME280;22617;43.690;27.956;2023-04-23T05:03:43;99030.03;;;9.43;80.22
18697;BME280;22617;43.690;27.956;2023-04-23T05:08:47;99031.78;;;9.73;78.62
18697;BME280;22617;43.690;27.956;2023-04-23T05:13:52;99026.53;;;10.00;78.82
18697;BME280;22617;43.690;27.956;2023-04-23T05:18:56;99026.53;;;10.24;77.97
18697;BME280;22617;43.690;27.956;2023-04-23T05:23:59;99036.91;;;10.44;76.65
18697;BME280;22617;43.690;27.956;2023-04-23T05:29:04;99033.31;;;10.72;75.92
18697;BME280;22617;43.690;27.956;2023-04-23T05:34:08;99030.56;;;11.01;76.17
18697;BME280;22617;43.690;27.956;2023-04-23T05:39:11;99035.66;;;11.25;75.05
18697;BME280;22617;43.690;27.956;2023-04-23T05:44:16;99038.09;;;11.47;75.71
18697;BME280;22617;43.690;27.956;2023-04-23T05:49:20;99039.66;;;11.72;75.76
18697;BME280;22617;43.690;27.956;2023-04-23T05:54:23;99034.34;;;11.86;74.71
18697;BME280;22617;43.690;27.956;2023-04-23T05:59:28;99041.13;;;12.08;75.67
18697;BME280;22617;43.690;27.956;2023-04-23T06:04:33;99047.81;;;12.36;76.34
18697;BME280;22617;43.690;27.956;2023-04-23T06:09:37;99041.50;;;12.55;75.46
18697;BME280;22617;43.690;27.956;2023-04-23T06:14:42;99047.19;;;12.89;75.10
18697;BME280;22617;43.690;27.956;2023-04-23T06:19:46;99044.25;;;13.17;72.84
18697;BME280;22617;43.690;27.956;2023-04-23T06:24:58;99040.16;;;13.57;69.18
18697;BME280;22617;43.690;27.956;2023-04-23T06:30:06;99040.28;;;14.02;70.69
18697;BME280;22617;43.690;27.956;2023-04-23T06:35:10;99049.31;;;14.34;68.58
18697;BME280;22617;43.690;27.956;2023-04-23T06:40:14;99046.13;;;14.65;67.39
18697;BME280;22617;43.690;27.956;2023-04-23T06:45:19;99041.72;;;15.10;65.82
18697;BME280;22617;43.690;27.956;2023-04-23T06:50:23;99041.75;;;15.47;64.04
18697;BME280;22617;43.690;27.956;2023-04-23T06:55:26;99041.47;;;15.96;62.93
18697;BME280;22617;43.690;27.956;2023-04-23T07:00:31;99043.25;;;16.29;62.12
18697;BME280;22617;43.690;27.956;2023-04-23T07:05:36;99046.78;;;16.28;59.08
18697;BME280;22617;43.690;27.956;2023-04-23T07:10:40;99051.25;;;16.59;59.71
18697;BME280;22617;43.690;27.956;2023-04-23T07:15:44;99051.22;;;16.91;57.85
18697;BME280;22617;43.690;27.956;2023-04-23T07:20:50;99051.16;;;16.62;58.82
18697;BME280;22617;43.690;27.956;2023-04-23T07:25:53;99051.97;;;17.24;57.65
18697;BME280;22617;43.690;27.956;2023-04-23T07:30:58;99054.09;;;17.70;56.26
18697;BME280;22617;43.690;27.956;2023-04-23T07:36:02;99055.72;;;18.00;54.27
18697;BME280;22617;43.690;27.956;2023-04-23T07:41:05;99059.13;;;18.30;51.90
18697;BME280;22617;43.690;27.956;2023-04-23T07:46:11;99055.47;;;17.54;51.93
18697;BME280;22617;43.690;27.956;2023-04-23T07:51:14;99053.56;;;16.69;52.68
18697;BME280;22617;43.690;27.956;2023-04-23T07:56:18;99046.38;;;17.64;55.22
18697;BME280;22617;43.690;27.956;2023-04-23T08:01:24;99044.41;;;18.48;54.19
18697;BME280;22617;43.690;27.956;2023-04-23T08:06:28;99044.22;;;18.79;53.30
18697;BME280;22617;43.690;27.956;2023-04-23T08:11:32;99042.03;;;19.59;50.44
18697;BME280;22617;43.690;27.956;2023-04-23T08:16:37;99038.69;;;19.98;49.74
18697;BME280;22617;43.690;27.956;2023-04-23T08:21:41;99034.00;;;20.05;45.50
18697;BME280;22617;43.690;27.956;2023-04-23T08:26:45;99033.09;;;20.26;44.65
18697;BME280;22617;43.690;27.956;2023-04-23T08:31:51;99025.53;;;19.08;47.77
18697;BME280;22617;43.690;27.956;2023-04-23T08:36:55;99040.00;;;18.23;48.70
18697;BME280;22617;43.690;27.956;2023-04-23T08:42:04;99026.88;;;17.96;49.41
18697;BME280;22617;43.690;27.956;2023-04-23T08:47:16;99017.47;;;19.11;48.40
18697;BME280;22617;43.690;27.956;2023-04-23T08:52:23;99017.31;;;17.65;46.29
18697;BME280;22617;43.690;27.956;2023-04-23T08:57:27;99017.59;;;17.28;49.42
18697;BME280;22617;43.690;27.956;2023-04-23T09:02:33;99002.53;;;19.77;47.48
18697;BME280;22617;43.690;27.956;2023-04-23T09:07:37;99002.84;;;20.11;47.36
18697;BME280;22617;43.690;27.956;2023-04-23T09:12:42;99000.72;;;18.89;49.23
18697;BME280;22617;43.690;27.956;2023-04-23T09:17:47;99006.47;;;19.67;53.24
18697;BME280;22617;43.690;27.956;2023-04-23T09:22:52;99007.28;;;18.54;48.33
18697;BME280;22617;43.690;27.956;2023-04-23T09:27:57;98999.31;;;18.04;50.31
18697;BME280;22617;43.690;27.956;2023-04-23T09:33:04;99000.19;;;17.51;51.40
18697;BME280;22617;43.690;27.956;2023-04-23T09:38:08;98997.81;;;17.43;53.10
18697;BME280;22617;43.690;27.956;2023-04-23T09:43:11;98986.56;;;17.38;51.63
18697;BME280;22617;43.690;27.956;2023-04-23T09:48:16;98980.69;;;17.56;53.51
18697;BME280;22617;43.690;27.956;2023-04-23T09:53:21;98989.47;;;17.57;50.84
18697;BME280;22617;43.690;27.956;2023-04-23T09:58:24;98986.97;;;17.80;51.86
18697;BME280;22617;43.690;27.956;2023-04-23T10:03:31;98992.44;;;18.00;48.72
18697;BME280;22617;43.690;27.956;2023-04-23T10:08:35;98975.03;;;18.92;53.41
18697;BME280;22617;43.690;27.956;2023-04-23T10:13:38;98968.31;;;19.29;49.15
18697;BME280;22617;43.690;27.956;2023-04-23T10:18:44;98971.16;;;18.56;47.81
18697;BME280;22617;43.690;27.956;2023-04-23T10:23:49;98967.03;;;17.98;51.14
18697;BME280;22617;43.690;27.956;2023-04-23T10:28:54;98968.16;;;17.91;51.60
18697;BME280;22617;43.690;27.956;2023-04-23T10:34:01;98967.59;;;18.07;51.84
18697;BME280;22617;43.690;27.956;2023-04-23T10:39:07;98954.66;;;18.48;51.31
18697;BME280;22617;43.690;27.956;2023-04-23T10:44:12;98943.84;;;19.24;49.17
18697;BME280;22617;43.690;27.956;2023-04-23T10:49:22;98940.97;;;20.73;47.67
18697;BME280;22617;43.690;27.956;2023-04-23T10:54:28;98934.91;;;21.63;48.36
18697;BME280;22617;43.690;27.956;2023-04-23T10:59:34;98947.03;;;21.50;47.33
18697;BME280;22617;43.690;27.956;2023-04-23T11:04:44;98945.22;;;19.97;48.16
18697;BME280;22617;43.690;27.956;2023-04-23T11:09:49;98954.84;;;17.69;53.01
18697;BME280;22617;43.690;27.956;2023-04-23T11:14:55;98953.97;;;16.85;54.50
18697;BME280;22617;43.690;27.956;2023-04-23T11:20:09;98954.91;;;16.51;55.41
18697;BME280;22617;43.690;27.956;2023-04-23T11:25:19;98960.66;;;16.02;59.00
18697;BME280;22617;43.690;27.956;2023-04-23T11:30:25;98967.53;;;15.76;59.19
18697;BME280;22617;43.690;27.956;2023-04-23T11:35:30;98980.47;;;15.46;59.75
18697;BME280;22617;43.690;27.956;2023-04-23T11:40:41;98975.25;;;15.08;62.23
18697;BME280;22617;43.690;27.956;2023-04-23T11:45:44;98983.53;;;14.90;62.12
18697;BME280;22617;43.690;27.956;2023-04-23T11:50:51;98985.38;;;14.84;61.96
18697;BME280;22617;43.690;27.956;2023-04-23T11:55:55;98980.25;;;14.78;63.10
18697;BME280;22617;43.690;27.956;2023-04-23T12:00:58;98985.97;;;14.57;64.96
18697;BME280;22617;43.690;27.956;2023-04-23T12:06:05;98976.06;;;14.71;64.22
18697;BME280;22617;43.690;27.956;2023-04-23T12:11:10;98980.34;;;14.75;65.00
18697;BME280;22617;43.690;27.956;2023-04-23T12:16:14;98971.69;;;14.70;65.18
18697;BME280;22617;43.690;27.956;2023-04-23T12:21:19;98960.91;;;15.22;65.26
18697;BME280;22617;43.690;27.956;2023-04-23T12:26:25;98953.72;;;15.67;61.40
18697;BME280;22617;43.690;27.956;2023-04-23T12:31:30;98946.25;;;15.85;59.71
18697;BME280;22617;43.690;27.956;2023-04-23T12:36:36;98942.00;;;16.11;58.70
18697;BME280;22617;43.690;27.956;2023-04-23T12:41:41;98943.38;;;17.42;55.08
18697;BME280;22617;43.690;27.956;2023-04-23T12:46:49;98934.97;;;17.57;53.17
18697;BME280;22617;43.690;27.956;2023-04-23T12:51:58;98934.25;;;18.05;55.86
18697;BME280;22617;43.690;27.956;2023-04-23T12:57:04;98919.78;;;18.16;52.64
18697;BME280;22617;43.690;27.956;2023-04-23T13:02:08;98921.41;;;18.67;50.17
18697;BME280;22617;43.690;27.956;2023-04-23T13:07:13;98918.34;;;18.31;50.39
18697;BME280;22617;43.690;27.956;2023-04-23T13:12:17;98913.88;;;19.03;49.80
18697;BME280;22617;43.690;27.956;2023-04-23T13:17:20;98906.59;;;18.86;48.61
18697;BME280;22617;43.690;27.956;2023-04-23T13:22:27;98899.69;;;19.69;49.24
18697;BME280;22617;43.690;27.956;2023-04-23T13:27:31;98902.78;;;19.58;45.40
18697;BME280;22617;43.690;27.956;2023-04-23T13:32:35;98904.16;;;19.89;46.71
18697;BME280;22617;43.690;27.956;2023-04-23T13:37:40;98901.09;;;19.98;47.38
18697;BME280;22617;43.690;27.956;2023-04-23T13:42:43;98895.50;;;19.85;45.54
18697;BME280;22617;43.690;27.956;2023-04-23T13:47:49;98899.25;;;18.94;47.92
18697;BME280;22617;43.690;27.956;2023-04-23T13:52:54;98902.75;;;18.71;49.12
18697;BME280;22617;43.690;27.956;2023-04-23T13:57:57;98889.50;;;18.73;45.24
18697;BME280;22617;43.690;27.956;2023-04-23T14:03:01;98891.59;;;18.65;46.67
18697;BME280;22617;43.690;27.956;2023-04-23T14:08:06;98880.03;;;18.67;47.94
18697;BME280;22617;43.690;27.956;2023-04-23T14:13:10;98884.56;;;18.41;46.58
18697;BME280;22617;43.690;27.956;2023-04-23T14:18:13;98880.06;;;18.43;48.64
18697;BME280;22617;43.690;27.956;2023-04-23T14:23:49;98879.72;;;17.80;49.82
18697;BME280;22617;43.690;27.956;2023-04-23T14:28:55;98876.31;;;18.50;49.60
18697;BME280;22617;43.690;27.956;2023-04-23T14:34:00;98873.31;;;18.36;47.51
18697;BME280;22617;43.690;27.956;2023-04-23T14:39:05;98873.59;;;18.51;48.07
18697;BME280;22617;43.690;27.956;2023-04-23T14:44:09;98869.75;;;18.83;43.18
18697;BME280;22617;43.690;27.956;2023-04-23T14:49:13;98869.16;;;18.53;45.57
18697;BME280;22617;43.690;27.956;2023-04-23T14:54:18;98858.53;;;18.55;44.62
18697;BME280;22617;43.690;27.956;2023-04-23T14:59:22;98865.84;;;18.00;48.38
18697;BME280;22617;43.690;27.956;2023-04-23T15:04:26;98861.22;;;17.82;46.28
18697;BME280;22617;43.690;27.956;2023-04-23T15:09:31;98855.13;;;17.80;47.71
18697;BME280;22617;43.690;27.956;2023-04-23T15:14:36;98852.63;;;17.77;49.10
18697;BME280;22617;43.690;27.956;2023-04-23T15:19:39;98866.63;;;17.79;48.74
18697;BME280;22617;43.690;27.956;2023-04-23T15:24:45;98866.97;;;17.68;48.79
18697;BME280;22617;43.690;27.956;2023-04-23T15:29:49;98861.38;;;17.51;49.62
18697;BME280;22617;43.690;27.956;2023-04-23T15:34:53;98867.47;;;17.53;50.24
18697;BME280;22617;43.690;27.956;2023-04-23T15:39:58;98868.44;;;17.24;51.51
18697;BME280;22617;43.690;27.956;2023-04-23T15:45:02;98875.44;;;17.25;50.89
18697;BME280;22617;43.690;27.956;2023-04-23T15:50:07;98875.59;;;17.21;52.07
18697;BME280;22617;43.690;27.956;2023-04-23T15:55:12;98871.16;;;16.95;53.32
18697;BME280;22617;43.690;27.956;2023-04-23T16:00:16;98862.16;;;16.74;53.93
18697;BME280;22617;43.690;27.956;2023-04-23T16:05:20;98860.19;;;16.51;54.46
18697;BME280;22617;43.690;27.956;2023-04-23T16:10:25;98862.78;;;16.53;54.60
18697;BME280;22617;43.690;27.956;2023-04-23T16:15:30;98865.00;;;16.37;57.03
18697;BME280;22617;43.690;27.956;2023-04-23T16:20:34;98866.56;;;15.83;57.67
18697;BME280;22617;43.690;27.956;2023-04-23T16:25:39;98865.41;;;15.62;57.41
18697;BME280;22617;43.690;27.956;2023-04-23T16:30:43;98868.53;;;15.41;58.04
18697;BME280;22617;43.690;27.956;2023-04-23T16:35:47;98869.84;;;15.24;59.07
18697;BME280;22617;43.690;27.956;2023-04-23T16:40:51;98880.38;;;15.23;59.73
18697;BME280;22617;43.690;27.956;2023-04-23T16:45:55;98879.53;;;15.21;59.67
18697;BME280;22617;43.690;27.956;2023-04-23T16:50:59;98880.28;;;14.91;59.85
18697;BME280;22617;43.690;27.956;2023-04-23T16:56:04;98889.38;;;14.76;60.25
18697;BME280;22617;43.690;27.956;2023-04-23T17:01:08;98883.25;;;14.37;60.50
18697;BME280;22617;43.690;27.956;2023-04-23T17:06:23;98879.88;;;14.29;60.60
18697;BME280;22617;43.690;27.956;2023-04-23T17:11:29;98893.25;;;14.15;61.40
18697;BME280;22617;43.690;27.956;2023-04-23T17:16:33;98894.66;;;13.88;61.76
18697;BME280;22617;43.690;27.956;2023-04-23T17:21:36;98895.88;;;13.71;62.59
18697;BME280;22617;43.690;27.956;2023-04-23T17:26:41;98900.78;;;13.40;63.83
18697;BME280;22617;43.690;27.956;2023-04-23T17:31:46;98902.84;;;13.20;64.47
18697;BME280;22617;43.690;27.956;2023-04-23T17:36:50;98897.81;;;13.06;65.51
18697;BME280;22617;43.690;27.956;2023-04-23T17:41:58;98906.09;;;12.77;66.38
18697;BME280;22617;43.690;27.956;2023-04-23T17:47:03;98908.75;;;12.76;66.77
18697;BME280;22617;43.690;27.956;2023-04-23T17:52:06;98911.47;;;12.68;67.25
18697;BME280;22617;43.690;27.956;2023-04-23T17:57:11;98916.06;;;12.51;67.67
18697;BME280;22617;43.690;27.956;2023-04-23T18:02:15;98912.66;;;12.43;67.96
18697;BME280;22617;43.690;27.956;2023-04-23T18:07:19;98917.31;;;12.19;68.15
18697;BME280;22617;43.690;27.956;2023-04-23T18:12:24;98920.91;;;12.11;68.16
18697;BME280;22617;43.690;27.956;2023-04-23T18:17:28;98922.75;;;12.01;68.12
18697;BME280;22617;43.690;27.956;2023-04-23T18:22:34;98918.63;;;11.82;68.42
18697;BME280;22617;43.690;27.956;2023-04-23T18:27:39;98922.97;;;11.80;68.50
18697;BME280;22617;43.690;27.956;2023-04-23T18:32:46;98928.28;;;11.74;67.81
18697;BME280;22617;43.690;27.956;2023-04-23T18:37:53;98930.09;;;11.63;67.70
18697;BME280;22617;43.690;27.956;2023-04-23T18:42:58;98927.47;;;11.64;67.69
18697;BME280;22617;43.690;27.956;2023-04-23T18:48:13;98923.31;;;11.42;68.13
18697;BME280;22617;43.690;27.956;2023-04-23T18:53:26;98931.16;;;11.37;68.14
18697;BME280;22617;43.690;27.956;2023-04-23T18:58:31;98927.69;;;11.38;67.92
18697;BME280;22617;43.690;27.956;2023-04-23T19:03:34;98926.91;;;11.27;67.87
18697;BME280;22617;43.690;27.956;2023-04-23T19:08:39;98929.59;;;11.20;68.31
18697;BME280;22617;43.690;27.956;2023-04-23T19:13:44;98927.00;;;11.15;68.36
18697;BME280;22617;43.690;27.956;2023-04-23T19:18:48;98929.66;;;11.12;68.41
18697;BME280;22617;43.690;27.956;2023-04-23T19:23:52;98928.63;;;11.30;68.40
18697;BME280;22617;43.690;27.956;2023-04-23T19:28:58;98925.25;;;11.19;68.02
18697;BME280;22617;43.690;27.956;2023-04-23T19:34:02;98919.16;;;11.18;68.36
18697;BME280;22617;43.690;27.956;2023-04-23T19:39:06;98921.00;;;11.07;67.98
18697;BME280;22617;43.690;27.956;2023-04-23T19:44:12;98914.88;;;11.10;67.56
18697;BME280;22617;43.690;27.956;2023-04-23T19:49:16;98914.00;;;11.11;67.91
18697;BME280;22617;43.690;27.956;2023-04-23T19:54:19;98908.78;;;11.09;67.85
18697;BME280;22617;43.690;27.956;2023-04-23T19:59:27;98901.97;;;10.91;68.01
18697;BME280;22617;43.690;27.956;2023-04-23T20:04:32;98896.03;;;10.73;67.68
18697;BME280;22617;43.690;27.956;2023-04-23T20:09:35;98895.25;;;10.56;68.08
18697;BME280;22617;43.690;27.956;2023-04-23T20:14:40;98897.81;;;10.63;67.72
18697;BME280;22617;43.690;27.956;2023-04-23T20:19:43;98896.16;;;10.52;68.01
18697;BME280;22617;43.690;27.956;2023-04-23T20:24:47;98893.59;;;10.42;67.56
18697;BME280;22617;43.690;27.956;2023-04-23T20:29:52;98898.00;;;10.30;68.04
18697;BME280;22617;43.690;27.956;2023-04-23T20:34:56;98894.47;;;10.37;68.10
18697;BME280;22617;43.690;27.956;2023-04-23T20:40:01;98893.63;;;10.33;67.71
18697;BME280;22617;43.690;27.956;2023-04-23T20:45:08;98894.59;;;10.16;68.05
18697;BME280;22617;43.690;27.956;2023-04-23T20:50:14;98890.28;;;9.99;68.91
18697;BME280;22617;43.690;27.956;2023-04-23T20:55:17;98906.81;;;9.91;69.19
18697;BME280;22617;43.690;27.956;2023-04-23T21:00:22;98899.84;;;9.88;69.05
18697;BME280;22617;43.690;27.956;2023-04-23T21:05:26;98888.63;;;9.77;68.93
18697;BME280;22617;43.690;27.956;2023-04-23T21:10:30;98891.19;;;9.86;68.85
18697;BME280;22617;43.690;27.956;2023-04-23T21:15:35;98892.94;;;9.81;68.66
18697;BME280;22617;43.690;27.956;2023-04-23T21:20:38;98890.38;;;9.72;69.51
18697;BME280;22617;43.690;27.956;2023-04-23T21:25:42;98893.84;;;9.54;69.35
18697;BME280;22617;43.690;27.956;2023-04-23T21:30:48;98893.00;;;9.61;69.42
18697;BME280;22617;43.690;27.956;2023-04-23T21:35:53;98889.53;;;9.52;70.07
18697;BME280;22617;43.690;27.956;2023-04-23T21:40:57;98896.44;;;9.60;69.79
18697;BME280;22617;43.690;27.956;2023-04-23T21:46:02;98893.88;;;9.57;71.01
18697;BME280;22617;43.690;27.956;2023-04-23T21:51:06;98886.06;;;9.62;70.25
18697;BME280;22617;43.690;27.956;2023-04-23T21:56:09;98889.56;;;9.40;70.26
18697;BME280;22617;43.690;27.956;2023-04-23T22:01:14;98883.50;;;9.09;71.97
18697;BME280;22617;43.690;27.956;2023-04-23T22:06:19;98880.03;;;9.22;71.75
18697;BME280;22617;43.690;27.956;2023-04-23T22:11:24;98867.91;;;9.12;71.77
18697;BME280;22617;43.690;27.956;2023-04-23T22:16:29;98873.97;;;8.81;71.86
18697;BME280;22617;43.690;27.956;2023-04-23T22:21:32;98866.16;;;8.74;72.54
18697;BME280;22617;43.690;27.956;2023-04-23T22:26:36;98852.31;;;8.72;72.95
18697;BME280;22617;43.690;27.956;2023-04-23T22:31:41;98848.81;;;8.55;72.96
18697;BME280;22617;43.690;27.956;2023-04-23T22:36:45;98838.41;;;8.46;73.44
18697;BME280;22617;43.690;27.956;2023-04-23T22:41:48;98840.19;;;8.62;73.45
18697;BME280;22617;43.690;27.956;2023-04-23T22:46:53;98845.38;;;8.61;72.86
18697;BME280;22617;43.690;27.956;2023-04-23T22:51:57;98838.44;;;8.80;71.94
18697;BME280;22617;43.690;27.956;2023-04-23T22:57:01;98846.22;;;8.69;71.88
18697;BME280;22617;43.690;27.956;2023-04-23T23:02:07;98847.09;;;8.69;72.04
18697;BME280;22617;43.690;27.956;2023-04-23T23:07:10;98840.19;;;8.74;71.93
18697;BME280;22617;43.690;27.956;2023-04-23T23:12:15;98841.03;;;8.66;71.61
18697;BME280;22617;43.690;27.956;2023-04-23T23:17:20;98844.47;;;8.63;71.31
18697;BME280;22617;43.690;27.956;2023-04-23T23:22:24;98834.97;;;8.59;71.78
18697;BME280;22617;43.690;27.956;2023-04-23T23:27:28;98833.25;;;8.52;72.17
18697;BME280;22617;43.690;27.956;2023-04-23T23:32:34;98826.31;;;8.48;72.27
18697;BME280;22617;43.690;27.956;2023-04-23T23:37:38;98823.72;;;8.44;72.09
18697;BME280;22617;43.690;27.956;2023-04-23T23:42:42;98824.53;;;8.44;72.61
18697;BME280;22617;43.690;27.956;2023-04-23T23:47:46;98810.72;;;8.48;72.47
18697;BME280;22617;43.690;27.956;2023-04-23T23:52:50;98814.19;;;8.50;73.02
18697;BME280;22617;43.690;27.956;2023-04-23T23:57:54;98802.03;;;8.49;72.93
